sensor_id;sensor_type;location;lat;lon;timestamp;P1;durP1;ratioP1;P2;durP2;ratioP2
5684;SDS011;2865;53.114;9.130;2023-06-19T00:00:27;7.50;;;6.40;;
5684;SDS011;2865;53.114;9.130;2023-06-19T00:02:52;7.30;;;6.50;;
5684;SDS011;2865;53.114;9.130;2023-06-19T00:05:18;7.80;;;6.97;;
5684;SDS011;2865;53.114;9.130;2023-06-19T00:07:43;6.20;;;5.70;;
5684;SDS011;2865;53.114;9.130;2023-06-19T00:10:09;8.67;;;7.77;;
5684;SDS011;2865;53.114;9.130;2023-06-19T00:12:35;6.77;;;6.17;;
5684;SDS011;2865;53.114;9.130;2023-06-19T00:15:00;6.43;;;5.83;;
5684;SDS011;2865;53.114;9.130;2023-06-19T00:17:25;6.87;;;6.27;;
5684;SDS011;2865;53.114;9.130;2023-06-19T00:19:52;7.70;;;7.00;;
5684;SDS011;2865;53.114;9.130;2023-06-19T00:22:17;7.37;;;6.67;;
5684;SDS011;2865;53.114;9.130;2023-06-19T00:24:42;7.83;;;6.97;;
5684;SDS011;2865;53.114;9.130;2023-06-19T00:27:07;7.47;;;6.77;;
5684;SDS011;2865;53.114;9.130;2023-06-19T00:29:33;7.03;;;6.43;;
5684;SDS011;2865;53.114;9.130;2023-06-19T00:31:59;6.97;;;6.33;;
5684;SDS011;2865;53.114;9.130;2023-06-19T00:34:24;11.87;;;6.70;;
5684;SDS011;2865;53.114;9.130;2023-06-19T00:36:49;6.17;;;5.43;;
5684;SDS011;2865;53.114;9.130;2023-06-19T00:39:14;8.63;;;6.97;;
5684;SDS011;2865;53.114;9.130;2023-06-19T00:41:40;6.57;;;6.00;;
5684;SDS011;2865;53.114;9.130;2023-06-19T00:44:05;8.40;;;7.60;;
5684;SDS011;2865;53.114;9.130;2023-06-19T00:46:31;6.90;;;6.30;;
5684;SDS011;2865;53.114;9.130;2023-06-19T00:48:56;8.17;;;7.20;;
5684;SDS011;2865;53.114;9.130;2023-06-19T00:51:21;8.63;;;6.40;;
5684;SDS011;2865;53.114;9.130;2023-06-19T00:53:47;7.20;;;6.50;;
5684;SDS011;2865;53.114;9.130;2023-06-19T00:56:12;13.97;;;7.40;;
5684;SDS011;2865;53.114;9.130;2023-06-19T00:58:38;6.80;;;6.20;;
5684;SDS011;2865;53.114;9.130;2023-06-19T01:01:03;15.93;;;6.70;;
5684;SDS011;2865;53.114;9.130;2023-06-19T01:03:29;7.80;;;6.50;;
5684;SDS011;2865;53.114;9.130;2023-06-19T01:05:54;6.63;;;6.07;;
5684;SDS011;2865;53.114;9.130;2023-06-19T01:08:35;7.23;;;6.63;;
5684;SDS011;2865;53.114;9.130;2023-06-19T01:10:57;7.10;;;6.40;;
5684;SDS011;2865;53.114;9.130;2023-06-19T01:13:31;7.23;;;6.60;;
5684;SDS011;2865;53.114;9.130;2023-06-19T01:15:54;8.50;;;6.67;;
5684;SDS011;2865;53.114;9.130;2023-06-19T01:18:19;8.57;;;6.27;;
5684;SDS011;2865;53.114;9.130;2023-06-19T01:20:44;11.50;;;6.20;;
5684;SDS011;2865;53.114;9.130;2023-06-19T01:23:10;7.53;;;6.93;;
5684;SDS011;2865;53.114;9.130;2023-06-19T01:25:35;8.30;;;7.50;;
5684;SDS011;2865;53.114;9.130;2023-06-19T01:28:01;7.60;;;6.90;;
5684;SDS011;2865;53.114;9.130;2023-06-19T01:30:27;7.83;;;7.00;;
5684;SDS011;2865;53.114;9.130;2023-06-19T01:32:54;8.70;;;6.63;;
5684;SDS011;2865;53.114;9.130;2023-06-19T01:35:20;8.00;;;7.20;;
5684;SDS011;2865;53.114;9.130;2023-06-19T01:37:44;7.43;;;6.73;;
5684;SDS011;2865;53.114;9.130;2023-06-19T01:40:10;8.03;;;7.20;;
5684;SDS011;2865;53.114;9.130;2023-06-19T01:42:37;8.07;;;6.97;;
5684;SDS011;2865;53.114;9.130;2023-06-19T01:45:02;7.87;;;7.07;;
5684;SDS011;2865;53.114;9.130;2023-06-19T01:47:28;7.60;;;6.90;;
5684;SDS011;2865;53.114;9.130;2023-06-19T01:49:54;7.93;;;6.87;;
5684;SDS011;2865;53.114;9.130;2023-06-19T01:52:19;7.07;;;6.37;;
5684;SDS011;2865;53.114;9.130;2023-06-19T01:54:44;7.90;;;7.20;;
5684;SDS011;2865;53.114;9.130;2023-06-19T01:57:10;8.00;;;7.20;;
5684;SDS011;2865;53.114;9.130;2023-06-19T01:59:35;11.70;;;7.10;;
5684;SDS011;2865;53.114;9.130;2023-06-19T02:02:00;6.73;;;6.13;;
5684;SDS011;2865;53.114;9.130;2023-06-19T02:04:26;8.90;;;6.50;;
5684;SDS011;2865;53.114;9.130;2023-06-19T02:06:51;7.80;;;7.10;;
5684;SDS011;2865;53.114;9.130;2023-06-19T02:09:17;6.80;;;6.20;;
5684;SDS011;2865;53.114;9.130;2023-06-19T02:11:42;8.37;;;7.07;;
5684;SDS011;2865;53.114;9.130;2023-06-19T02:14:08;7.47;;;6.30;;
5684;SDS011;2865;53.114;9.130;2023-06-19T02:16:33;6.90;;;6.30;;
5684;SDS011;2865;53.114;9.130;2023-06-19T02:18:58;6.97;;;6.37;;
5684;SDS011;2865;53.114;9.130;2023-06-19T02:21:24;6.50;;;5.90;;
5684;SDS011;2865;53.114;9.130;2023-06-19T02:23:49;7.50;;;6.80;;
5684;SDS011;2865;53.114;9.130;2023-06-19T02:26:14;7.43;;;6.77;;
5684;SDS011;2865;53.114;9.130;2023-06-19T02:28:40;7.73;;;7.03;;
5684;SDS011;2865;53.114;9.130;2023-06-19T02:31:05;7.70;;;6.90;;
5684;SDS011;2865;53.114;9.130;2023-06-19T02:33:30;6.93;;;6.23;;
5684;SDS011;2865;53.114;9.130;2023-06-19T02:35:56;8.20;;;7.23;;
5684;SDS011;2865;53.114;9.130;2023-06-19T02:38:22;7.53;;;6.73;;
5684;SDS011;2865;53.114;9.130;2023-06-19T02:40:48;6.33;;;5.73;;
5684;SDS011;2865;53.114;9.130;2023-06-19T02:43:13;7.73;;;7.00;;
5684;SDS011;2865;53.114;9.130;2023-06-19T02:45:38;7.43;;;6.43;;
5684;SDS011;2865;53.114;9.130;2023-06-19T02:48:04;6.20;;;5.60;;
5684;SDS011;2865;53.114;9.130;2023-06-19T02:50:30;7.13;;;6.20;;
5684;SDS011;2865;53.114;9.130;2023-06-19T02:52:55;7.20;;;6.53;;
5684;SDS011;2865;53.114;9.130;2023-06-19T02:55:21;7.37;;;6.77;;
5684;SDS011;2865;53.114;9.130;2023-06-19T02:57:46;6.97;;;6.20;;
5684;SDS011;2865;53.114;9.130;2023-06-19T03:00:12;6.80;;;6.20;;
5684;SDS011;2865;53.114;9.130;2023-06-19T03:02:38;6.63;;;6.13;;
5684;SDS011;2865;53.114;9.130;2023-06-19T03:05:03;16.30;;;7.83;;
5684;SDS011;2865;53.114;9.130;2023-06-19T03:07:29;6.80;;;6.20;;
5684;SDS011;2865;53.114;9.130;2023-06-19T03:09:55;6.57;;;5.97;;
5684;SDS011;2865;53.114;9.130;2023-06-19T03:12:20;12.83;;;8.10;;
5684;SDS011;2865;53.114;9.130;2023-06-19T03:14:45;6.93;;;6.23;;
5684;SDS011;2865;53.114;9.130;2023-06-19T03:17:12;7.53;;;6.10;;
5684;SDS011;2865;53.114;9.130;2023-06-19T03:19:36;5.53;;;5.03;;
5684;SDS011;2865;53.114;9.130;2023-06-19T03:22:01;7.43;;;6.73;;
5684;SDS011;2865;53.114;9.130;2023-06-19T03:24:27;7.03;;;6.27;;
5684;SDS011;2865;53.114;9.130;2023-06-19T03:26:52;6.17;;;5.57;;
5684;SDS011;2865;53.114;9.130;2023-06-19T03:29:18;7.20;;;6.50;;
5684;SDS011;2865;53.114;9.130;2023-06-19T03:31:43;6.40;;;5.80;;
5684;SDS011;2865;53.114;9.130;2023-06-19T03:34:08;7.17;;;6.47;;
5684;SDS011;2865;53.114;9.130;2023-06-19T03:36:34;6.63;;;6.03;;
5684;SDS011;2865;53.114;9.130;2023-06-19T03:38:59;6.93;;;6.23;;
5684;SDS011;2865;53.114;9.130;2023-06-19T03:41:24;7.40;;;6.70;;
5684;SDS011;2865;53.114;9.130;2023-06-19T03:43:50;5.90;;;5.40;;
5684;SDS011;2865;53.114;9.130;2023-06-19T03:46:15;6.90;;;6.30;;
5684;SDS011;2865;53.114;9.130;2023-06-19T03:48:41;5.60;;;5.10;;
5684;SDS011;2865;53.114;9.130;2023-06-19T03:51:06;7.00;;;6.33;;
5684;SDS011;2865;53.114;9.130;2023-06-19T03:53:31;6.90;;;6.30;;
5684;SDS011;2865;53.114;9.130;2023-06-19T03:55:57;6.63;;;6.00;;
5684;SDS011;2865;53.114;9.130;2023-06-19T03:58:22;6.73;;;6.03;;
5684;SDS011;2865;53.114;9.130;2023-06-19T04:00:47;6.30;;;5.63;;
5684;SDS011;2865;53.114;9.130;2023-06-19T04:03:13;6.27;;;5.67;;
5684;SDS011;2865;53.114;9.130;2023-06-19T04:05:38;6.77;;;6.07;;
5684;SDS011;2865;53.114;9.130;2023-06-19T04:08:04;6.33;;;5.73;;
5684;SDS011;2865;53.114;9.130;2023-06-19T04:10:29;6.93;;;6.23;;
5684;SDS011;2865;53.114;9.130;2023-06-19T04:12:54;6.40;;;5.80;;
5684;SDS011;2865;53.114;9.130;2023-06-19T04:15:20;6.43;;;5.83;;
5684;SDS011;2865;53.114;9.130;2023-06-19T04:17:45;8.90;;;6.30;;
5684;SDS011;2865;53.114;9.130;2023-06-19T04:20:11;5.73;;;5.20;;
5684;SDS011;2865;53.114;9.130;2023-06-19T04:22:37;7.63;;;5.33;;
5684;SDS011;2865;53.114;9.130;2023-06-19T04:25:02;7.20;;;5.70;;
5684;SDS011;2865;53.114;9.130;2023-06-19T04:27:27;7.43;;;5.90;;
5684;SDS011;2865;53.114;9.130;2023-06-19T04:29:53;6.30;;;5.60;;
5684;SDS011;2865;53.114;9.130;2023-06-19T04:32:18;7.00;;;6.30;;
5684;SDS011;2865;53.114;9.130;2023-06-19T04:34:43;6.20;;;5.70;;
5684;SDS011;2865;53.114;9.130;2023-06-19T04:37:09;5.97;;;5.47;;
5684;SDS011;2865;53.114;9.130;2023-06-19T04:39:34;10.20;;;6.97;;
5684;SDS011;2865;53.114;9.130;2023-06-19T04:41:59;7.00;;;5.93;;
5684;SDS011;2865;53.114;9.130;2023-06-19T04:44:25;10.37;;;6.67;;
5684;SDS011;2865;53.114;9.130;2023-06-19T04:46:50;8.47;;;6.40;;
5684;SDS011;2865;53.114;9.130;2023-06-19T04:49:16;7.20;;;5.97;;
5684;SDS011;2865;53.114;9.130;2023-06-19T04:51:41;7.20;;;6.40;;
5684;SDS011;2865;53.114;9.130;2023-06-19T04:54:06;7.03;;;6.33;;
5684;SDS011;2865;53.114;9.130;2023-06-19T04:56:32;8.43;;;6.20;;
5684;SDS011;2865;53.114;9.130;2023-06-19T04:58:57;6.73;;;6.13;;
5684;SDS011;2865;53.114;9.130;2023-06-19T05:01:23;11.83;;;7.60;;
5684;SDS011;2865;53.114;9.130;2023-06-19T05:03:48;6.37;;;5.77;;
5684;SDS011;2865;53.114;9.130;2023-06-19T05:06:14;9.17;;;7.27;;
5684;SDS011;2865;53.114;9.130;2023-06-19T05:08:39;8.77;;;6.50;;
5684;SDS011;2865;53.114;9.130;2023-06-19T05:11:04;8.90;;;7.73;;
5684;SDS011;2865;53.114;9.130;2023-06-19T05:13:30;6.80;;;6.20;;
5684;SDS011;2865;53.114;9.130;2023-06-19T05:15:55;11.43;;;7.53;;
5684;SDS011;2865;53.114;9.130;2023-06-19T05:18:21;9.20;;;6.50;;
5684;SDS011;2865;53.114;9.130;2023-06-19T05:20:47;8.90;;;6.83;;
5684;SDS011;2865;53.114;9.130;2023-06-19T05:23:12;7.30;;;6.00;;
5684;SDS011;2865;53.114;9.130;2023-06-19T05:25:37;11.33;;;6.47;;
5684;SDS011;2865;53.114;9.130;2023-06-19T05:28:03;9.83;;;6.90;;
5684;SDS011;2865;53.114;9.130;2023-06-19T05:30:28;7.70;;;6.90;;
5684;SDS011;2865;53.114;9.130;2023-06-19T05:32:54;8.50;;;6.73;;
5684;SDS011;2865;53.114;9.130;2023-06-19T05:35:19;8.40;;;6.60;;
5684;SDS011;2865;53.114;9.130;2023-06-19T05:37:44;7.70;;;6.60;;
5684;SDS011;2865;53.114;9.130;2023-06-19T05:40:10;13.10;;;7.60;;
5684;SDS011;2865;53.114;9.130;2023-06-19T05:42:36;6.80;;;5.67;;
5684;SDS011;2865;53.114;9.130;2023-06-19T05:45:01;9.50;;;5.70;;
5684;SDS011;2865;53.114;9.130;2023-06-19T05:47:26;6.77;;;6.07;;
5684;SDS011;2865;53.114;9.130;2023-06-19T05:49:52;6.63;;;5.93;;
5684;SDS011;2865;53.114;9.130;2023-06-19T05:52:17;6.93;;;6.07;;
5684;SDS011;2865;53.114;9.130;2023-06-19T05:54:42;6.00;;;5.50;;
5684;SDS011;2865;53.114;9.130;2023-06-19T05:57:08;6.30;;;5.70;;
5684;SDS011;2865;53.114;9.130;2023-06-19T05:59:33;5.70;;;5.20;;
5684;SDS011;2865;53.114;9.130;2023-06-19T06:01:58;6.13;;;5.50;;
5684;SDS011;2865;53.114;9.130;2023-06-19T06:04:24;6.00;;;5.20;;
5684;SDS011;2865;53.114;9.130;2023-06-19T06:06:49;5.30;;;4.87;;
5684;SDS011;2865;53.114;9.130;2023-06-19T06:09:15;7.47;;;5.80;;
5684;SDS011;2865;53.114;9.130;2023-06-19T06:11:40;6.00;;;5.50;;
5684;SDS011;2865;53.114;9.130;2023-06-19T06:14:05;7.27;;;5.40;;
5684;SDS011;2865;53.114;9.130;2023-06-19T06:16:31;5.87;;;5.37;;
5684;SDS011;2865;53.114;9.130;2023-06-19T06:18:56;6.03;;;5.43;;
5684;SDS011;2865;53.114;9.130;2023-06-19T06:21:21;5.83;;;5.23;;
5684;SDS011;2865;53.114;9.130;2023-06-19T06:23:47;7.30;;;6.20;;
5684;SDS011;2865;53.114;9.130;2023-06-19T06:26:12;5.70;;;5.17;;
5684;SDS011;2865;53.114;9.130;2023-06-19T06:28:37;6.03;;;5.40;;
5684;SDS011;2865;53.114;9.130;2023-06-19T06:31:03;5.87;;;5.37;;
5684;SDS011;2865;53.114;9.130;2023-06-19T06:33:28;6.63;;;6.03;;
5684;SDS011;2865;53.114;9.130;2023-06-19T06:35:54;5.80;;;5.20;;
5684;SDS011;2865;53.114;9.130;2023-06-19T06:38:19;7.20;;;5.63;;
5684;SDS011;2865;53.114;9.130;2023-06-19T06:40:45;5.87;;;5.37;;
5684;SDS011;2865;53.114;9.130;2023-06-19T06:43:10;7.50;;;5.80;;
5684;SDS011;2865;53.114;9.130;2023-06-19T06:45:35;8.00;;;5.80;;
5684;SDS011;2865;53.114;9.130;2023-06-19T06:48:01;9.07;;;5.83;;
5684;SDS011;2865;53.114;9.130;2023-06-19T06:50:26;6.07;;;4.80;;
5684;SDS011;2865;53.114;9.130;2023-06-19T06:52:52;6.37;;;5.77;;
5684;SDS011;2865;53.114;9.130;2023-06-19T06:55:17;6.70;;;5.43;;
5684;SDS011;2865;53.114;9.130;2023-06-19T06:57:42;8.00;;;5.70;;
5684;SDS011;2865;53.114;9.130;2023-06-19T07:00:08;7.80;;;5.63;;
5684;SDS011;2865;53.114;9.130;2023-06-19T07:02:35;5.73;;;5.17;;
5684;SDS011;2865;53.114;9.130;2023-06-19T07:05:00;8.73;;;5.47;;
5684;SDS011;2865;53.114;9.130;2023-06-19T07:07:25;6.10;;;5.50;;
5684;SDS011;2865;53.114;9.130;2023-06-19T07:09:51;5.80;;;5.00;;
5684;SDS011;2865;53.114;9.130;2023-06-19T07:12:16;6.53;;;5.37;;
5684;SDS011;2865;53.114;9.130;2023-06-19T07:14:41;5.77;;;5.13;;
5684;SDS011;2865;53.114;9.130;2023-06-19T07:17:07;6.33;;;5.27;;
5684;SDS011;2865;53.114;9.130;2023-06-19T07:19:32;6.10;;;5.53;;
5684;SDS011;2865;53.114;9.130;2023-06-19T07:21:57;7.03;;;5.40;;
5684;SDS011;2865;53.114;9.130;2023-06-19T07:24:23;5.97;;;5.20;;
5684;SDS011;2865;53.114;9.130;2023-06-19T07:26:49;7.00;;;5.10;;
5684;SDS011;2865;53.114;9.130;2023-06-19T07:29:14;9.90;;;6.10;;
5684;SDS011;2865;53.114;9.130;2023-06-19T07:31:39;6.17;;;5.50;;
5684;SDS011;2865;53.114;9.130;2023-06-19T07:34:05;8.73;;;5.77;;
5684;SDS011;2865;53.114;9.130;2023-06-19T07:36:30;6.17;;;5.20;;
5684;SDS011;2865;53.114;9.130;2023-06-19T07:38:55;5.57;;;5.00;;
5684;SDS011;2865;53.114;9.130;2023-06-19T07:41:21;5.50;;;5.00;;
5684;SDS011;2865;53.114;9.130;2023-06-19T07:43:46;6.50;;;5.50;;
5684;SDS011;2865;53.114;9.130;2023-06-19T07:46:11;6.20;;;5.43;;
5684;SDS011;2865;53.114;9.130;2023-06-19T07:48:37;6.43;;;5.13;;
5684;SDS011;2865;53.114;9.130;2023-06-19T07:51:02;6.67;;;6.07;;
5684;SDS011;2865;53.114;9.130;2023-06-19T07:53:27;6.00;;;5.50;;
5684;SDS011;2865;53.114;9.130;2023-06-19T07:55:53;5.60;;;5.10;;
5684;SDS011;2865;53.114;9.130;2023-06-19T07:58:18;7.00;;;5.47;;
5684;SDS011;2865;53.114;9.130;2023-06-19T08:00:44;5.30;;;4.73;;
5684;SDS011;2865;53.114;9.130;2023-06-19T08:03:09;6.83;;;5.33;;
5684;SDS011;2865;53.114;9.130;2023-06-19T08:05:35;6.10;;;5.13;;
5684;SDS011;2865;53.114;9.130;2023-06-19T08:08:01;5.20;;;4.70;;
5684;SDS011;2865;53.114;9.130;2023-06-19T08:10:26;5.27;;;4.77;;
5684;SDS011;2865;53.114;9.130;2023-06-19T08:12:52;5.90;;;5.30;;
5684;SDS011;2865;53.114;9.130;2023-06-19T08:15:17;5.70;;;4.83;;
5684;SDS011;2865;53.114;9.130;2023-06-19T08:17:42;6.23;;;5.60;;
5684;SDS011;2865;53.114;9.130;2023-06-19T08:20:08;6.70;;;5.20;;
5684;SDS011;2865;53.114;9.130;2023-06-19T08:22:34;6.43;;;5.67;;
5684;SDS011;2865;53.114;9.130;2023-06-19T08:24:59;6.50;;;5.10;;
5684;SDS011;2865;53.114;9.130;2023-06-19T08:27:25;5.80;;;4.87;;
5684;SDS011;2865;53.114;9.130;2023-06-19T08:29:50;6.37;;;5.03;;
5684;SDS011;2865;53.114;9.130;2023-06-19T08:32:16;5.73;;;5.20;;
5684;SDS011;2865;53.114;9.130;2023-06-19T08:34:41;7.60;;;5.70;;
5684;SDS011;2865;53.114;9.130;2023-06-19T08:37:07;6.07;;;5.50;;
5684;SDS011;2865;53.114;9.130;2023-06-19T08:39:32;5.23;;;4.53;;
5684;SDS011;2865;53.114;9.130;2023-06-19T08:41:57;9.03;;;5.37;;
5684;SDS011;2865;53.114;9.130;2023-06-19T08:44:23;6.00;;;5.23;;
5684;SDS011;2865;53.114;9.130;2023-06-19T08:46:48;5.87;;;5.27;;
5684;SDS011;2865;53.114;9.130;2023-06-19T08:49:13;4.83;;;4.43;;
5684;SDS011;2865;53.114;9.130;2023-06-19T08:51:39;4.77;;;4.23;;
5684;SDS011;2865;53.114;9.130;2023-06-19T08:54:05;6.30;;;5.70;;
5684;SDS011;2865;53.114;9.130;2023-06-19T08:56:31;6.33;;;5.03;;
5684;SDS011;2865;53.114;9.130;2023-06-19T08:59:06;7.83;;;5.87;;
5684;SDS011;2865;53.114;9.130;2023-06-19T09:01:23;9.10;;;6.60;;
5684;SDS011;2865;53.114;9.130;2023-06-19T09:03:49;6.17;;;5.27;;
5684;SDS011;2865;53.114;9.130;2023-06-19T09:06:15;4.97;;;4.40;;
5684;SDS011;2865;53.114;9.130;2023-06-19T09:08:40;5.10;;;4.60;;
5684;SDS011;2865;53.114;9.130;2023-06-19T09:11:05;6.77;;;5.40;;
5684;SDS011;2865;53.114;9.130;2023-06-19T09:13:31;7.10;;;5.73;;
5684;SDS011;2865;53.114;9.130;2023-06-19T09:15:57;7.23;;;4.00;;
5684;SDS011;2865;53.114;9.130;2023-06-19T09:18:23;5.00;;;4.50;;
5684;SDS011;2865;53.114;9.130;2023-06-19T09:20:51;4.40;;;4.00;;
5684;SDS011;2865;53.114;9.130;2023-06-19T09:23:14;5.53;;;4.73;;
5684;SDS011;2865;53.114;9.130;2023-06-19T09:25:46;5.40;;;4.90;;
5684;SDS011;2865;53.114;9.130;2023-06-19T09:28:18;5.23;;;4.73;;
5684;SDS011;2865;53.114;9.130;2023-06-19T09:33:25;5.53;;;4.97;;
5684;SDS011;2865;53.114;9.130;2023-06-19T09:35:51;8.17;;;5.50;;
5684;SDS011;2865;53.114;9.130;2023-06-19T09:38:17;7.40;;;5.07;;
5684;SDS011;2865;53.114;9.130;2023-06-19T09:40:42;5.50;;;5.00;;
5684;SDS011;2865;53.114;9.130;2023-06-19T09:43:07;7.60;;;5.20;;
5684;SDS011;2865;53.114;9.130;2023-06-19T09:45:33;7.33;;;4.97;;
5684;SDS011;2865;53.114;9.130;2023-06-19T09:47:58;4.93;;;4.43;;
5684;SDS011;2865;53.114;9.130;2023-06-19T09:50:24;6.60;;;4.60;;
5684;SDS011;2865;53.114;9.130;2023-06-19T09:52:49;6.50;;;4.93;;
5684;SDS011;2865;53.114;9.130;2023-06-19T09:55:14;4.23;;;3.83;;
5684;SDS011;2865;53.114;9.130;2023-06-19T09:57:40;5.47;;;3.10;;
5684;SDS011;2865;53.114;9.130;2023-06-19T10:00:06;4.93;;;3.40;;
5684;SDS011;2865;53.114;9.130;2023-06-19T10:02:33;10.90;;;3.17;;
5684;SDS011;2865;53.114;9.130;2023-06-19T10:04:58;3.40;;;3.10;;
5684;SDS011;2865;53.114;9.130;2023-06-19T10:07:24;4.17;;;3.03;;
5684;SDS011;2865;53.114;9.130;2023-06-19T10:10:03;2.70;;;2.50;;
5684;SDS011;2865;53.114;9.130;2023-06-19T10:12:38;3.37;;;3.17;;
5684;SDS011;2865;53.114;9.130;2023-06-19T10:15:41;6.00;;;3.23;;
5684;SDS011;2865;53.114;9.130;2023-06-19T10:17:53;4.77;;;4.00;;
5684;SDS011;2865;53.114;9.130;2023-06-19T10:20:20;3.37;;;3.07;;
5684;SDS011;2865;53.114;9.130;2023-06-19T10:22:50;3.93;;;3.53;;
5684;SDS011;2865;53.114;9.130;2023-06-19T10:25:20;3.90;;;3.43;;
5684;SDS011;2865;53.114;9.130;2023-06-19T10:27:45;3.57;;;3.00;;
5684;SDS011;2865;53.114;9.130;2023-06-19T10:30:16;5.63;;;3.00;;
5684;SDS011;2865;53.114;9.130;2023-06-19T10:32:37;3.30;;;3.00;;
5684;SDS011;2865;53.114;9.130;2023-06-19T10:35:10;4.03;;;3.07;;
5684;SDS011;2865;53.114;9.130;2023-06-19T10:37:32;3.23;;;2.73;;
5684;SDS011;2865;53.114;9.130;2023-06-19T10:39:57;2.80;;;2.60;;
5684;SDS011;2865;53.114;9.130;2023-06-19T10:42:22;3.03;;;2.80;;
5684;SDS011;2865;53.114;9.130;2023-06-19T10:44:48;3.50;;;3.20;;
5684;SDS011;2865;53.114;9.130;2023-06-19T10:47:14;3.43;;;3.13;;
5684;SDS011;2865;53.114;9.130;2023-06-19T10:49:38;3.40;;;3.03;;
5684;SDS011;2865;53.114;9.130;2023-06-19T10:52:04;3.37;;;2.80;;
5684;SDS011;2865;53.114;9.130;2023-06-19T10:54:31;3.80;;;3.40;;
5684;SDS011;2865;53.114;9.130;2023-06-19T10:56:56;14.33;;;3.43;;
5684;SDS011;2865;53.114;9.130;2023-06-19T10:59:21;3.80;;;3.00;;
5684;SDS011;2865;53.114;9.130;2023-06-19T11:01:48;2.70;;;2.50;;
5684;SDS011;2865;53.114;9.130;2023-06-19T11:04:13;2.30;;;2.10;;
5684;SDS011;2865;53.114;9.130;2023-06-19T11:06:38;4.10;;;2.97;;
5684;SDS011;2865;53.114;9.130;2023-06-19T11:09:03;3.50;;;3.13;;
5684;SDS011;2865;53.114;9.130;2023-06-19T11:14:01;2.47;;;2.27;;
5684;SDS011;2865;53.114;9.130;2023-06-19T11:16:26;2.30;;;2.10;;
5684;SDS011;2865;53.114;9.130;2023-06-19T11:18:55;2.30;;;2.10;;
5684;SDS011;2865;53.114;9.130;2023-06-19T11:21:17;1.80;;;1.70;;
5684;SDS011;2865;53.114;9.130;2023-06-19T11:23:42;3.27;;;2.00;;
5684;SDS011;2865;53.114;9.130;2023-06-19T11:26:07;3.20;;;2.00;;
5684;SDS011;2865;53.114;9.130;2023-06-19T11:28:33;3.37;;;1.80;;
5684;SDS011;2865;53.114;9.130;2023-06-19T11:30:59;5.03;;;1.97;;
5684;SDS011;2865;53.114;9.130;2023-06-19T11:33:23;5.40;;;2.93;;
5684;SDS011;2865;53.114;9.130;2023-06-19T11:35:50;8.93;;;2.30;;
5684;SDS011;2865;53.114;9.130;2023-06-19T11:38:16;3.10;;;2.50;;
5684;SDS011;2865;53.114;9.130;2023-06-19T11:40:41;2.40;;;2.20;;
5684;SDS011;2865;53.114;9.130;2023-06-19T11:45:50;4.83;;;4.43;;
5684;SDS011;2865;53.114;9.130;2023-06-19T11:48:21;5.13;;;4.73;;
5684;SDS011;2865;53.114;9.130;2023-06-19T11:50:46;12.73;;;4.30;;
5684;SDS011;2865;53.114;9.130;2023-06-19T11:53:12;4.23;;;2.80;;
5684;SDS011;2865;53.114;9.130;2023-06-19T11:55:37;2.87;;;2.67;;
5684;SDS011;2865;53.114;9.130;2023-06-19T11:58:02;3.00;;;2.80;;
5684;SDS011;2865;53.114;9.130;2023-06-19T12:00:28;4.20;;;3.60;;
5684;SDS011;2865;53.114;9.130;2023-06-19T12:02:53;4.70;;;3.43;;
5684;SDS011;2865;53.114;9.130;2023-06-19T12:05:19;2.60;;;2.40;;
5684;SDS011;2865;53.114;9.130;2023-06-19T12:07:44;2.50;;;2.30;;
5684;SDS011;2865;53.114;9.130;2023-06-19T12:10:10;2.90;;;2.10;;
5684;SDS011;2865;53.114;9.130;2023-06-19T12:12:36;2.50;;;2.30;;
5684;SDS011;2865;53.114;9.130;2023-06-19T12:15:01;2.03;;;1.93;;
5684;SDS011;2865;53.114;9.130;2023-06-19T12:17:26;2.43;;;2.23;;
5684;SDS011;2865;53.114;9.130;2023-06-19T12:19:52;2.77;;;2.57;;
5684;SDS011;2865;53.114;9.130;2023-06-19T12:22:17;2.60;;;2.13;;
5684;SDS011;2865;53.114;9.130;2023-06-19T12:24:42;3.33;;;2.40;;
5684;SDS011;2865;53.114;9.130;2023-06-19T12:27:08;2.47;;;2.00;;
5684;SDS011;2865;53.114;9.130;2023-06-19T12:29:33;5.63;;;2.30;;
5684;SDS011;2865;53.114;9.130;2023-06-19T12:32:00;2.90;;;2.20;;
5684;SDS011;2865;53.114;9.130;2023-06-19T12:34:24;4.57;;;2.13;;
5684;SDS011;2865;53.114;9.130;2023-06-19T12:36:49;3.47;;;2.23;;
5684;SDS011;2865;53.114;9.130;2023-06-19T12:39:15;3.03;;;2.00;;
5684;SDS011;2865;53.114;9.130;2023-06-19T12:41:40;2.83;;;2.47;;
5684;SDS011;2865;53.114;9.130;2023-06-19T12:44:05;7.23;;;2.60;;
5684;SDS011;2865;53.114;9.130;2023-06-19T12:46:31;2.30;;;2.10;;
5684;SDS011;2865;53.114;9.130;2023-06-19T12:48:56;3.50;;;3.20;;
5684;SDS011;2865;53.114;9.130;2023-06-19T12:51:22;2.80;;;2.50;;
5684;SDS011;2865;53.114;9.130;2023-06-19T12:53:47;3.53;;;2.90;;
5684;SDS011;2865;53.114;9.130;2023-06-19T12:56:12;2.83;;;2.63;;
5684;SDS011;2865;53.114;9.130;2023-06-19T12:58:38;4.70;;;2.90;;
5684;SDS011;2865;53.114;9.130;2023-06-19T13:01:03;3.50;;;3.20;;
5684;SDS011;2865;53.114;9.130;2023-06-19T13:03:28;5.90;;;3.93;;
5684;SDS011;2865;53.114;9.130;2023-06-19T13:05:54;4.63;;;4.23;;
5684;SDS011;2865;53.114;9.130;2023-06-19T13:08:20;4.37;;;3.80;;
5684;SDS011;2865;53.114;9.130;2023-06-19T13:10:44;3.70;;;3.40;;
5684;SDS011;2865;53.114;9.130;2023-06-19T13:13:10;3.83;;;3.53;;
5684;SDS011;2865;53.114;9.130;2023-06-19T13:15:35;6.63;;;5.20;;
5684;SDS011;2865;53.114;9.130;2023-06-19T13:18:01;6.67;;;6.00;;
5684;SDS011;2865;53.114;9.130;2023-06-19T13:20:26;5.53;;;5.03;;
5684;SDS011;2865;53.114;9.130;2023-06-19T13:22:52;5.47;;;4.97;;
5684;SDS011;2865;53.114;9.130;2023-06-19T13:25:17;8.30;;;4.80;;
5684;SDS011;2865;53.114;9.130;2023-06-19T13:27:42;4.90;;;4.50;;
5684;SDS011;2865;53.114;9.130;2023-06-19T13:30:08;5.47;;;4.23;;
5684;SDS011;2865;53.114;9.130;2023-06-19T13:32:34;4.20;;;3.80;;
5684;SDS011;2865;53.114;9.130;2023-06-19T13:34:59;5.20;;;3.60;;
5684;SDS011;2865;53.114;9.130;2023-06-19T13:37:25;4.93;;;4.10;;
5684;SDS011;2865;53.114;9.130;2023-06-19T13:39:50;4.80;;;4.33;;
5684;SDS011;2865;53.114;9.130;2023-06-19T13:42:16;5.90;;;4.37;;
5684;SDS011;2865;53.114;9.130;2023-06-19T13:44:41;4.67;;;4.27;;
5684;SDS011;2865;53.114;9.130;2023-06-19T13:47:07;4.00;;;3.70;;
5684;SDS011;2865;53.114;9.130;2023-06-19T13:49:32;4.93;;;3.57;;
5684;SDS011;2865;53.114;9.130;2023-06-19T13:51:58;4.40;;;4.10;;
5684;SDS011;2865;53.114;9.130;2023-06-19T13:54:23;4.07;;;3.70;;
5684;SDS011;2865;53.114;9.130;2023-06-19T13:56:48;3.73;;;3.43;;
5684;SDS011;2865;53.114;9.130;2023-06-19T13:59:14;4.37;;;3.97;;
5684;SDS011;2865;53.114;9.130;2023-06-19T14:01:39;3.90;;;3.50;;
5684;SDS011;2865;53.114;9.130;2023-06-19T14:04:04;4.63;;;3.90;;
5684;SDS011;2865;53.114;9.130;2023-06-19T14:06:30;3.53;;;3.23;;
5684;SDS011;2865;53.114;9.130;2023-06-19T14:08:55;4.07;;;3.77;;
5684;SDS011;2865;53.114;9.130;2023-06-19T14:11:21;6.90;;;3.87;;
5684;SDS011;2865;53.114;9.130;2023-06-19T14:13:46;4.27;;;3.87;;
5684;SDS011;2865;53.114;9.130;2023-06-19T14:16:11;4.67;;;4.27;;
5684;SDS011;2865;53.114;9.130;2023-06-19T14:18:37;4.53;;;4.13;;
5684;SDS011;2865;53.114;9.130;2023-06-19T14:21:02;9.03;;;3.80;;
5684;SDS011;2865;53.114;9.130;2023-06-19T14:23:28;4.87;;;4.47;;
5684;SDS011;2865;53.114;9.130;2023-06-19T14:25:53;3.47;;;3.17;;
5684;SDS011;2865;53.114;9.130;2023-06-19T14:28:19;4.00;;;3.60;;
5684;SDS011;2865;53.114;9.130;2023-06-19T14:30:44;3.33;;;3.10;;
5684;SDS011;2865;53.114;9.130;2023-06-19T14:33:10;3.50;;;3.20;;
5684;SDS011;2865;53.114;9.130;2023-06-19T14:35:35;3.50;;;3.20;;
5684;SDS011;2865;53.114;9.130;2023-06-19T14:38:01;4.20;;;3.67;;
5684;SDS011;2865;53.114;9.130;2023-06-19T14:40:26;3.03;;;2.83;;
5684;SDS011;2865;53.114;9.130;2023-06-19T14:42:51;3.80;;;3.40;;
5684;SDS011;2865;53.114;9.130;2023-06-19T14:45:17;4.00;;;3.70;;
5684;SDS011;2865;53.114;9.130;2023-06-19T14:47:42;3.90;;;3.60;;
5684;SDS011;2865;53.114;9.130;2023-06-19T14:50:07;3.90;;;3.60;;
5684;SDS011;2865;53.114;9.130;2023-06-19T14:52:33;4.10;;;3.17;;
5684;SDS011;2865;53.114;9.130;2023-06-19T14:54:58;4.13;;;3.63;;
5684;SDS011;2865;53.114;9.130;2023-06-19T14:57:24;3.33;;;3.10;;
5684;SDS011;2865;53.114;9.130;2023-06-19T14:59:49;3.40;;;3.20;;
5684;SDS011;2865;53.114;9.130;2023-06-19T15:02:14;3.80;;;3.20;;
5684;SDS011;2865;53.114;9.130;2023-06-19T15:04:40;7.63;;;4.03;;
5684;SDS011;2865;53.114;9.130;2023-06-19T15:07:05;3.60;;;3.30;;
5684;SDS011;2865;53.114;9.130;2023-06-19T15:09:31;3.63;;;3.33;;
5684;SDS011;2865;53.114;9.130;2023-06-19T15:11:56;4.70;;;4.10;;